Time;durP1;ratioP1;P1;durP2;ratioP2;P2;SDS_P1;SDS_P2;PMS_P1;PMS_P2;Temp;Humidity;BMP_temperature;BMP_pressure;BME280_temperature;BME280_humidity;BME280_pressure;Samples;Min_cycle;Max_cycle;Signal;HPM_P1;HPM_P2
2021/09/07 00:02:21;;;;;;;9.85;6.00;;;;;;;18.06;70.37;101170.41;5013892;28;20029;-73
2021/09/07 00:04:47;;;;;;;8.07;6.00;;;;;;;18.01;72.02;101157.56;5015828;28;20112;-73
2021/09/07 00:07:12;;;;;;;7.88;6.00;;;;;;;17.98;70.68;101165.97;5013948;28;20145;-73
2021/09/07 00:09:37;;;;;;;7.32;5.60;;;;;;;18.06;69.60;101170.41;5010469;28;20059;-73
2021/09/07 00:12:03;;;;;;;7.10;5.30;;;;;;;18.03;68.99;101170.78;5006989;28;20440;-73
2021/09/07 00:14:28;;;;;;;7.00;5.20;;;;;;;18.02;69.45;101172.63;5011323;28;20025;-72
2021/09/07 00:16:54;;;;;;;8.20;5.60;;;;;;;17.96;69.44;101173.34;5018268;28;20119;-72
2021/09/07 00:19:19;;;;;;;7.35;5.72;;;;;;;17.87;69.45;101177.13;5016344;28;20309;-73
2021/09/07 00:21:44;;;;;;;8.13;6.18;;;;;;;17.81;71.31;101175.22;5011884;28;20345;-73
2021/09/07 00:24:10;;;;;;;8.00;6.43;;;;;;;17.71;71.61;101171.91;5011722;28;20050;-73
2021/09/07 00:26:35;;;;;;;7.72;6.18;;;;;;;17.70;70.23;101180.97;5010406;28;20034;-73
2021/09/07 00:29:00;;;;;;;7.80;6.63;;;;;;;17.63;70.65;101173.66;5002260;28;20034;-73
2021/09/07 00:31:26;;;;;;;8.00;6.50;;;;;;;17.53;71.25;101174.94;5015702;28;20034;-73
2021/09/07 00:33:51;;;;;;;6.55;5.25;;;;;;;17.46;72.79;101177.50;4998272;28;20049;-73
2021/09/07 00:36:16;;;;;;;6.00;5.30;;;;;;;17.46;73.25;101187.38;5009137;28;20085;-73
2021/09/07 00:38:42;;;;;;;6.38;5.35;;;;;;;17.50;70.69;101170.81;5011225;28;20138;-72
2021/09/07 00:41:07;;;;;;;7.68;5.60;;;;;;;17.41;74.21;101174.56;5015314;28;20038;-72
2021/09/07 00:43:32;;;;;;;8.07;5.88;;;;;;;17.34;74.27;101165.59;5014822;28;20089;-72
2021/09/07 00:45:57;;;;;;;7.63;6.20;;;;;;;17.30;74.84;101166.97;4996872;28;20029;-73
2021/09/07 00:48:23;;;;;;;8.18;6.20;;;;;;;17.22;74.61;101165.19;5014601;28;20038;-73
2021/09/07 00:50:48;;;;;;;6.70;5.30;;;;;;;17.23;73.54;101163.34;5008080;28;20036;-73
2021/09/07 00:53:15;;;;;;;7.25;5.70;;;;;;;17.17;74.05;101167.56;5013522;28;20506;-73
2021/09/07 00:55:43;;;;;;;6.88;5.47;;;;;;;17.11;74.61;101160.25;5014123;28;20072;-73
2021/09/07 00:58:09;;;;;;;6.97;5.57;;;;;;;17.07;73.79;101164.31;4992360;28;20533;-73
2021/09/07 01:00:34;;;;;;;8.18;6.03;;;;;;;16.95;75.41;101162.06;5014786;28;20229;-73
2021/09/07 01:02:59;;;;;;;8.23;5.85;;;;;;;16.86;75.86;101162.31;5012668;28;20080;-73
2021/09/07 01:05:25;;;;;;;6.85;5.50;;;;;;;16.75;76.47;101156.31;4997323;28;20143;-73
2021/09/07 01:07:50;;;;;;;7.22;5.50;;;;;;;16.71;76.00;101155.03;5012400;28;20033;-73
2021/09/07 01:10:15;;;;;;;7.53;5.97;;;;;;;16.65;76.59;101161.06;5014083;28;20038;-73
2021/09/07 01:12:41;;;;;;;8.00;6.15;;;;;;;16.63;76.24;101159.56;5014489;28;20056;-73
2021/09/07 01:15:07;;;;;;;6.80;5.45;;;;;;;16.61;77.29;101159.72;5013886;28;20082;-73
2021/09/07 01:17:32;;;;;;;6.15;5.00;;;;;;;16.67;74.98;101159.03;5014224;28;20026;-73
2021/09/07 01:19:58;;;;;;;6.60;5.45;;;;;;;16.71;74.91;101155.03;5013434;28;20030;-73
2021/09/07 01:22:23;;;;;;;8.00;5.72;;;;;;;16.66;74.80;101157.38;5010593;28;20113;-73
2021/09/07 01:24:50;;;;;;;7.25;5.85;;;;;;;16.59;76.19;101159.09;5009467;28;20052;-73
2021/09/07 01:27:17;;;;;;;8.68;6.38;;;;;;;16.55;75.57;101166.63;5006212;28;20038;-73
2021/09/07 01:29:43;;;;;;;8.32;5.55;;;;;;;16.51;77.09;101162.63;4992529;28;20026;-72
2021/09/07 01:32:10;;;;;;;7.90;5.63;;;;;;;16.47;76.01;101168.50;4994223;28;20490;-73
2021/09/07 01:34:38;;;;;;;7.82;5.45;;;;;;;16.49;74.51;101171.81;5012573;28;20146;-73
2021/09/07 01:37:03;;;;;;;6.47;4.97;;;;;;;16.50;75.62;101170.81;5014377;28;20367;-73
2021/09/07 01:39:29;;;;;;;5.68;4.65;;;;;;;16.49;74.63;101172.69;5004167;28;20037;-73
2021/09/07 01:41:54;;;;;;;5.90;4.95;;;;;;;16.46;74.65;101161.50;5014275;28;20033;-73
2021/09/07 01:44:20;;;;;;;7.25;5.93;;;;;;;16.46;74.57;101166.84;5013319;28;20041;-72
2021/09/07 01:46:46;;;;;;;7.03;5.28;;;;;;;16.38;76.24;101173.06;5018450;28;20068;-73
2021/09/07 01:49:13;;;;;;;6.78;5.43;;;;;;;16.37;76.68;101167.88;5006871;28;20269;-73
2021/09/07 01:51:40;;;;;;;7.60;4.97;;;;;;;16.35;75.74;101163.56;5013549;28;20124;-73
2021/09/07 01:54:07;;;;;;;6.00;5.15;;;;;;;16.35;75.16;101160.88;5010016;28;20091;-74
2021/09/07 01:56:32;;;;;;;7.28;5.15;;;;;;;16.33;78.08;101159.41;5006411;28;20038;-73
2021/09/07 01:58:57;;;;;;;7.38;6.25;;;;;;;16.25;77.49;101156.75;5011941;28;20044;-73
2021/09/07 02:01:23;;;;;;;7.97;6.20;;;;;;;16.15;78.66;101156.97;5001217;28;20061;-73
2021/09/07 02:03:48;;;;;;;7.20;5.82;;;;;;;16.08;78.28;101153.31;5005348;28;20038;-73
2021/09/07 02:06:13;;;;;;;7.88;6.13;;;;;;;15.99;79.79;101157.03;5010240;28;20033;-73
2021/09/07 02:08:39;;;;;;;7.80;6.70;;;;;;;15.89;80.19;101157.22;5012579;28;20030;-73
2021/09/07 02:11:04;;;;;;;7.57;6.30;;;;;;;15.81;80.88;101163.41;5011297;28;20030;-73
2021/09/07 02:13:29;;;;;;;7.70;6.18;;;;;;;15.76;80.87;101157.75;5011544;28;20044;-73
2021/09/07 02:15:54;;;;;;;9.27;6.80;;;;;;;15.73;81.58;101168.78;5011803;28;20192;-73
2021/09/07 02:18:20;;;;;;;8.02;6.35;;;;;;;15.73;80.94;101166.09;5010957;28;20438;-73
2021/09/07 02:20:45;;;;;;;7.63;5.93;;;;;;;15.69;81.05;101170.91;5006165;28;20038;-73
2021/09/07 02:23:10;;;;;;;7.53;6.07;;;;;;;15.67;82.20;101172.06;5011719;28;20033;-73
2021/09/07 02:25:36;;;;;;;8.05;6.65;;;;;;;15.64;81.32;101172.41;4997285;28;20088;-73
2021/09/07 02:28:02;;;;;;;8.52;6.22;;;;;;;15.66;81.19;101167.72;5002109;28;20146;-73
2021/09/07 02:30:28;;;;;;;7.75;6.28;;;;;;;15.78;80.16;101169.09;5009862;28;20366;-73
2021/09/07 02:32:56;;;;;;;7.82;5.65;;;;;;;15.80;81.62;101172.44;5010375;28;20040;-73
2021/09/07 02:35:22;;;;;;;7.97;6.43;;;;;;;15.82;80.01;101169.56;5009696;28;20296;-73
2021/09/07 02:37:47;;;;;;;7.47;5.78;;;;;;;15.81;79.98;101166.06;5012789;28;20141;-73
2021/09/07 02:40:13;;;;;;;7.10;5.90;;;;;;;15.80;82.17;101166.25;5010964;28;20119;-72
2021/09/07 02:42:38;;;;;;;8.93;6.50;;;;;;;15.75;81.32;101161.41;5009009;28;20071;-73
2021/09/07 02:45:04;;;;;;;9.90;6.70;;;;;;;15.73;82.46;101155.44;5011954;28;20112;-73
2021/09/07 02:47:29;;;;;;;9.88;6.78;;;;;;;15.68;81.67;101161.25;5010616;28;20398;-73
2021/09/07 02:49:54;;;;;;;7.47;6.18;;;;;;;15.68;83.22;101158.59;4986645;28;20097;-73
2021/09/07 02:52:20;;;;;;;7.75;5.57;;;;;;;15.78;79.98;101152.22;5010412;28;20076;-73
2021/09/07 02:54:45;;;;;;;8.77;6.20;;;;;;;15.84;80.07;101151.56;4994338;28;20034;-73
2021/09/07 02:57:10;;;;;;;6.80;5.50;;;;;;;15.90;79.22;101146.38;5011408;28;20041;-73
2021/09/07 02:59:35;;;;;;;6.78;5.63;;;;;;;15.91;79.17;101141.88;5006541;28;20120;-73
2021/09/07 03:02:01;;;;;;;7.38;5.60;;;;;;;15.88;80.64;101144.91;5006316;28;20030;-73
2021/09/07 03:04:26;;;;;;;6.88;5.63;;;;;;;15.88;80.61;101137.72;5010719;28;20037;-73
2021/09/07 03:06:51;;;;;;;7.25;5.55;;;;;;;15.91;80.47;101137.38;5004607;28;20053;-73
2021/09/07 03:09:17;;;;;;;6.40;5.30;;;;;;;15.91;80.01;101137.38;4987627;28;20117;-72
2021/09/07 03:11:42;;;;;;;8.55;6.00;;;;;;;15.79;80.02;101141.41;4994603;28;20026;-72
2021/09/07 03:14:07;;;;;;;7.88;5.75;;;;;;;15.70;81.03;101139.75;5009313;28;20046;-73
2021/09/07 03:16:35;;;;;;;8.00;6.20;;;;;;;15.64;82.52;101135.09;4993832;28;20026;-73
2021/09/07 03:19:02;;;;;;;7.00;5.75;;;;;;;15.56;82.09;101133.25;5005263;28;20027;-72
2021/09/07 03:21:27;;;;;;;8.50;5.63;;;;;;;15.51;81.99;101133.75;5014886;28;20497;-73
2021/09/07 03:23:53;;;;;;;6.43;5.40;;;;;;;15.52;81.05;101134.63;5014950;28;20038;-73
2021/09/07 03:26:18;;;;;;;6.90;5.32;;;;;;;15.52;81.92;101131.94;5014595;28;20034;-73
2021/09/07 03:28:43;;;;;;;8.30;6.57;;;;;;;15.49;82.12;101134.94;5008855;28;20094;-72
2021/09/07 03:31:08;;;;;;;7.25;5.95;;;;;;;15.44;82.82;101131.94;5010085;28;20034;-73
2021/09/07 03:33:34;;;;;;;8.25;6.43;;;;;;;15.41;82.68;101124.31;4996391;28;20030;-74
2021/09/07 03:35:59;;;;;;;7.82;5.97;;;;;;;15.36;83.32;101119.47;5014583;28;20538;-75
2021/09/07 03:38:24;;;;;;;7.78;6.10;;;;;;;15.37;84.15;101117.63;4995986;28;20069;-74
2021/09/07 03:40:50;;;;;;;7.53;6.03;;;;;;;15.44;83.60;101122.13;5014309;28;20030;-74
2021/09/07 03:43:15;;;;;;;7.53;5.90;;;;;;;15.54;82.45;101121.09;5014666;28;20446;-74
2021/09/07 03:45:41;;;;;;;6.68;5.55;;;;;;;15.57;82.46;101120.78;4997771;28;20037;-74
2021/09/07 03:48:06;;;;;;;8.27;5.90;;;;;;;15.63;80.85;101120.91;5014328;28;20382;-74
2021/09/07 03:50:32;;;;;;;8.05;6.05;;;;;;;15.62;82.83;101121.09;5014614;28;20049;-74
2021/09/07 03:52:57;;;;;;;6.35;5.40;;;;;;;15.65;80.87;101126.91;5009907;28;20077;-74
2021/09/07 03:55:22;;;;;;;6.10;5.03;;;;;;;15.65;81.85;101123.41;5003779;28;20033;-74
2021/09/07 03:57:48;;;;;;;7.95;5.55;;;;;;;15.65;80.93;101126.09;4996954;28;20037;-74
2021/09/07 04:00:14;;;;;;;7.93;5.93;;;;;;;15.60;81.46;101128.44;5000785;28;20495;-74
2021/09/07 04:02:40;;;;;;;7.88;6.32;;;;;;;15.51;82.98;101133.75;5009113;28;20038;-74
2021/09/07 04:05:06;;;;;;;9.57;6.70;;;;;;;15.50;82.18;101132.09;5000722;28;20038;-74
2021/09/07 04:07:31;;;;;;;8.02;6.53;;;;;;;15.56;81.31;101130.59;5001498;28;20034;-74
2021/09/07 04:09:57;;;;;;;7.32;6.00;;;;;;;15.63;82.41;101136.09;5008203;28;20133;-74
2021/09/07 04:12:22;;;;;;;10.45;7.03;;;;;;;15.71;81.47;101141.44;5013877;28;20068;-74
2021/09/07 04:14:47;;;;;;;9.02;7.22;;;;;;;15.80;81.35;101128.91;5013512;28;20117;-74
2021/09/07 04:17:13;;;;;;;10.38;7.35;;;;;;;15.96;79.65;101134.19;5001318;28;20030;-74
2021/09/07 04:19:38;;;;;;;9.95;7.82;;;;;;;15.98;80.11;101136.69;5013938;28;20445;-75
2021/09/07 04:22:03;;;;;;;8.98;7.35;;;;;;;16.02;79.40;101138.84;4996224;28;20453;-75
2021/09/07 04:24:29;;;;;;;8.15;7.13;;;;;;;15.99;80.33;101139.16;5014310;28;20388;-75
2021/09/07 04:26:54;;;;;;;8.60;6.78;;;;;;;15.99;81.21;101147.16;4997391;28;20037;-74
2021/09/07 04:29:21;;;;;;;9.65;7.03;;;;;;;15.96;80.86;101138.69;5011560;28;20038;-75
2021/09/07 04:31:46;;;;;;;7.85;6.38;;;;;;;15.97;81.17;101141.22;5015055;28;20034;-75
2021/09/07 04:34:11;;;;;;;9.27;6.72;;;;;;;15.97;81.18;101143.00;5002316;28;20035;-75
2021/09/07 04:36:37;;;;;;;8.55;6.72;;;;;;;15.97;80.63;101135.00;5004310;28;20030;-74
2021/09/07 04:39:02;;;;;;;8.60;6.60;;;;;;;15.92;80.43;101138.19;5004387;28;20041;-74
2021/09/07 04:41:28;;;;;;;7.05;6.03;;;;;;;15.86;80.10;101139.72;5014094;28;20058;-75
2021/09/07 04:43:53;;;;;;;7.90;6.43;;;;;;;15.82;80.50;101143.72;5012281;28;20030;-74
2021/09/07 04:46:18;;;;;;;7.47;6.30;;;;;;;15.77;81.42;101145.25;4997086;28;20034;-74
2021/09/07 04:48:46;;;;;;;7.25;5.95;;;;;;;15.73;81.00;101142.13;5013234;28;20037;-75
2021/09/07 04:51:11;;;;;;;7.43;5.88;;;;;;;15.71;81.66;101146.78;5011678;28;20115;-76
2021/09/07 04:53:36;;;;;;;7.50;6.35;;;;;;;15.68;81.35;101147.06;5020603;28;20034;-75
2021/09/07 04:56:01;;;;;;;6.93;5.85;;;;;;;15.68;81.75;101147.91;5012907;28;20144;-75
2021/09/07 04:58:27;;;;;;;10.45;6.65;;;;;;;15.71;80.39;101155.59;5008336;28;20042;-75
2021/09/07 05:00:52;;;;;;;6.88;5.50;;;;;;;15.73;81.27;101155.44;5006109;28;20180;-76
2021/09/07 05:03:18;;;;;;;6.93;5.32;;;;;;;15.73;81.34;101150.13;5012299;28;20494;-75
2021/09/07 05:05:43;;;;;;;6.78;6.00;;;;;;;15.68;81.89;101158.59;4994493;28;20037;-75
2021/09/07 05:08:08;;;;;;;8.48;5.75;;;;;;;15.66;81.11;101163.25;5009571;28;20053;-75
2021/09/07 05:10:33;;;;;;;7.13;5.72;;;;;;;15.64;81.70;101169.75;5012042;28;20453;-74
2021/09/07 05:12:59;;;;;;;7.20;5.90;;;;;;;15.58;81.53;101163.25;5007512;28;20034;-74
2021/09/07 05:15:24;;;;;;;8.63;6.20;;;;;;;15.58;82.36;101159.75;5013862;28;20026;-74
2021/09/07 05:17:50;;;;;;;7.00;5.63;;;;;;;15.56;83.68;101157.25;4994774;28;20383;-74
2021/09/07 05:20:15;;;;;;;7.10;5.72;;;;;;;15.60;81.81;101163.09;5012167;28;20378;-74
2021/09/07 05:22:41;;;;;;;8.43;5.97;;;;;;;15.59;82.94;101158.75;5013807;28;20367;-74
2021/09/07 05:25:07;;;;;;;8.52;6.13;;;;;;;15.62;82.52;101156.59;5013363;28;20041;-74
2021/09/07 05:27:33;;;;;;;7.13;5.78;;;;;;;15.70;82.47;101155.75;5004762;28;20034;-74
2021/09/07 05:29:58;;;;;;;7.32;5.70;;;;;;;15.76;81.06;101154.28;5003310;28;20518;-74
2021/09/07 05:32:24;;;;;;;6.60;5.22;;;;;;;15.80;80.87;101160.91;5012460;28;20038;-74
2021/09/07 05:34:49;;;;;;;6.28;5.05;;;;;;;15.87;80.87;101168.06;5002256;28;20109;-75
2021/09/07 05:37:15;;;;;;;7.70;4.95;;;;;;;15.93;81.28;101161.22;5007334;28;20030;-74
2021/09/07 05:39:40;;;;;;;8.02;5.90;;;;;;;15.98;81.22;101163.38;4994423;28;20030;-74
2021/09/07 05:42:05;;;;;;;6.43;5.32;;;;;;;16.04;80.63;101165.34;5012103;28;20056;-74
2021/09/07 05:44:31;;;;;;;6.53;5.53;;;;;;;16.07;79.88;101173.00;4990123;28;20030;-74
2021/09/07 05:46:56;;;;;;;8.30;6.70;;;;;;;16.03;81.50;101169.00;4991207;28;20037;-75
2021/09/07 05:49:22;;;;;;;10.70;7.70;;;;;;;15.99;81.95;101183.69;5011795;28;20042;-75
2021/09/07 05:51:47;;;;;;;10.18;7.07;;;;;;;16.01;81.45;101187.03;5010500;28;20064;-75
2021/09/07 05:54:13;;;;;;;7.50;6.13;;;;;;;16.05;80.56;101186.50;4994675;28;20034;-75
2021/09/07 05:56:38;;;;;;;10.65;8.52;;;;;;;16.07;80.18;101191.69;5007950;28;20042;-74
2021/09/07 05:59:04;;;;;;;15.65;10.07;;;;;;;16.09;79.54;101192.34;5009343;28;20066;-75
2021/09/07 06:01:29;;;;;;;14.20;9.52;;;;;;;16.07;79.47;101202.34;5000282;28;20423;-75
2021/09/07 06:03:54;;;;;;;11.68;8.75;;;;;;;16.04;80.20;101194.69;5008476;28;20262;-74
2021/09/07 06:06:21;;;;;;;11.67;8.83;;;;;;;16.13;79.46;101193.66;5012068;28;20042;-75
2021/09/07 06:08:46;;;;;;;10.73;8.10;;;;;;;16.19;80.16;101195.66;5012558;28;20285;-75
2021/09/07 06:11:11;;;;;;;10.90;8.63;;;;;;;16.27;80.35;101195.59;5005693;28;20035;-75
2021/09/07 06:13:37;;;;;;;11.73;9.33;;;;;;;16.34;80.46;101195.75;5010136;28;20380;-75
2021/09/07 06:16:02;;;;;;;11.45;8.65;;;;;;;16.45;80.12;101197.22;5004527;28;20355;-74
2021/09/07 06:18:28;;;;;;;12.75;9.25;;;;;;;16.55;80.54;101197.81;5011737;28;20034;-74
2021/09/07 06:20:55;;;;;;;12.27;9.00;;;;;;;16.64;79.45;101206.63;5012830;28;20040;-74
2021/09/07 06:23:20;;;;;;;11.30;7.93;;;;;;;16.77;79.04;101212.22;5011473;28;20037;-74
2021/09/07 06:25:46;;;;;;;13.38;9.15;;;;;;;16.90;78.83;101209.84;5005439;28;20120;-74
2021/09/07 06:28:11;;;;;;;16.38;10.23;;;;;;;16.92;78.73;101207.84;5009194;28;20034;-75
2021/09/07 06:30:36;;;;;;;14.82;10.63;;;;;;;17.05;78.46;101212.59;5006237;28;20053;-74
2021/09/07 06:33:02;;;;;;;12.90;9.98;;;;;;;17.26;77.09;101216.47;5009330;22;20065;-76
2021/09/07 06:35:28;;;;;;;13.40;8.75;;;;;;;17.39;76.94;101212.16;4987794;28;20521;-76
2021/09/07 06:37:54;;;;;;;11.55;9.02;;;;;;;17.54;77.07;101206.00;4971682;28;20031;-76
2021/09/07 06:40:21;;;;;;;8.93;7.07;;;;;;;17.61;76.96;101205.13;4988924;28;20045;-77
2021/09/07 06:42:46;;;;;;;8.70;6.93;;;;;;;17.77;76.85;101193.44;4965072;28;20390;-76
2021/09/07 06:45:12;;;;;;;7.45;6.15;;;;;;;18.02;76.69;101195.91;4973256;28;20039;-76
2021/09/07 06:47:37;;;;;;;7.50;6.07;;;;;;;18.20;76.17;101193.66;4973761;28;20137;-77
2021/09/07 06:50:05;;;;;;;7.50;6.03;;;;;;;18.39;75.55;101202.97;4992354;28;20034;-77
2021/09/07 06:52:30;;;;;;;8.82;5.57;;;;;;;18.67;75.25;101213.00;4976369;28;20105;-76
2021/09/07 06:54:56;;;;;;;6.85;5.10;;;;;;;18.82;71.12;101215.66;4994232;28;20041;-76
2021/09/07 06:57:21;;;;;;;6.40;5.20;;;;;;;18.96;72.24;101219.31;4993305;28;20038;-77
2021/09/07 06:59:46;;;;;;;6.20;5.10;;;;;;;19.04;73.42;101216.50;4993613;28;20100;-76
2021/09/07 07:02:12;;;;;;;7.70;6.30;;;;;;;19.22;71.25;101211.53;4975389;28;20078;-77
2021/09/07 07:04:37;;;;;;;8.60;6.53;;;;;;;19.31;72.05;101207.72;4976597;28;20030;-77
2021/09/07 07:07:03;;;;;;;8.55;6.03;;;;;;;19.47;71.79;101205.75;4994323;28;20482;-76
2021/09/07 07:09:28;;;;;;;7.47;6.13;;;;;;;19.52;70.77;101214.06;4976776;28;20038;-77
2021/09/07 07:11:53;;;;;;;7.43;5.43;;;;;;;19.61;71.69;101215.56;4993805;28;20062;-75
2021/09/07 07:14:21;;;;;;;10.20;7.80;;;;;;;19.59;70.14;101217.63;4992487;28;20494;-76
2021/09/07 07:16:48;;;;;;;11.77;8.50;;;;;;;19.48;70.05;101215.47;4993022;28;20026;-76
2021/09/07 07:19:13;;;;;;;12.18;8.60;;;;;;;19.52;70.39;101219.41;4974864;28;20062;-76
2021/09/07 07:21:38;;;;;;;10.18;7.60;;;;;;;19.61;70.16;101222.81;4975941;28;20534;-76
2021/09/07 07:24:04;;;;;;;11.73;8.30;;;;;;;19.66;69.75;101223.91;4974909;28;20026;-76
2021/09/07 07:26:29;;;;;;;11.93;7.82;;;;;;;19.71;69.46;101224.16;4993295;28;20039;-77
2021/09/07 07:28:55;;;;;;;12.90;9.10;;;;;;;19.88;69.26;101221.19;4992448;28;20046;-76
2021/09/07 07:31:20;;;;;;;13.80;9.65;;;;;;;19.90;68.64;101227.16;4992909;28;20070;-77
2021/09/07 07:33:45;;;;;;;11.75;9.70;;;;;;;19.81;68.67;101223.00;4992473;28;20054;-77
2021/09/07 07:36:11;;;;;;;12.68;9.75;;;;;;;19.85;68.57;101227.75;4992104;28;20337;-77
2021/09/07 07:38:36;;;;;;;12.20;8.48;;;;;;;19.85;68.84;101230.44;4992346;28;20394;-76
2021/09/07 07:41:02;;;;;;;12.88;9.77;;;;;;;19.81;68.90;101231.88;4990101;28;20034;-77
2021/09/07 07:43:29;;;;;;;11.98;9.45;;;;;;;19.91;68.96;101236.91;4976033;28;20029;-77
2021/09/07 07:45:55;;;;;;;13.90;10.45;;;;;;;20.12;68.47;101244.88;4992229;28;20105;-76
2021/09/07 07:48:20;;;;;;;12.18;9.98;;;;;;;20.27;67.97;101243.94;4976895;28;20125;-76
2021/09/07 07:50:45;;;;;;;15.70;10.00;;;;;;;20.29;68.03;101245.38;4992750;28;20125;-76
2021/09/07 07:53:11;;;;;;;13.65;10.35;;;;;;;20.49;67.75;101248.16;4994800;28;20525;-76
2021/09/07 07:55:36;;;;;;;12.27;10.02;;;;;;;20.91;67.58;101257.06;4992590;28;20090;-76
2021/09/07 07:58:01;;;;;;;14.13;10.93;;;;;;;21.33;65.72;101263.16;4991537;28;20129;-76
2021/09/07 08:00:27;;;;;;;12.63;9.57;;;;;;;21.44;64.63;101261.72;4973835;28;20503;-76
2021/09/07 08:02:52;;;;;;;11.65;8.52;;;;;;;21.63;64.33;101260.91;4990898;28;20027;-76
2021/09/07 08:05:17;;;;;;;10.80;8.40;;;;;;;21.87;64.29;101257.81;4991414;28;20041;-76
2021/09/07 08:07:43;;;;;;;13.73;9.65;;;;;;;22.08;61.36;101262.94;4990980;28;20058;-76
2021/09/07 08:10:09;;;;;;;12.02;9.05;;;;;;;22.23;60.48;101260.88;4977419;28;20524;-76
2021/09/07 08:12:34;;;;;;;11.48;8.38;;;;;;;22.32;61.30;101263.34;4974018;28;20030;-76
2021/09/07 08:14:59;;;;;;;9.10;7.53;;;;;;;22.46;61.58;101267.66;4991670;28;20133;-76
2021/09/07 08:17:25;;;;;;;8.60;6.40;;;;;;;22.64;60.17;101264.25;4974085;28;20593;-76
2021/09/07 08:19:50;;;;;;;8.60;6.40;;;;;;;23.03;61.37;101265.97;4991255;28;20037;-76
2021/09/07 08:22:16;;;;;;;10.80;7.00;;;;;;;23.52;60.03;101256.28;4973244;28;20079;-76
2021/09/07 08:24:42;;;;;;;10.10;6.80;;;;;;;24.01;58.55;101266.53;4992113;28;20054;-76
2021/09/07 08:27:07;;;;;;;9.02;6.40;;;;;;;24.64;57.25;101268.13;4988525;28;20089;-76
2021/09/07 08:29:33;;;;;;;7.40;5.82;;;;;;;25.04;57.56;101273.84;4973782;28;20038;-76
2021/09/07 08:31:58;;;;;;;8.10;6.05;;;;;;;25.51;56.71;101270.47;4974050;28;20041;-76
2021/09/07 08:34:24;;;;;;;8.65;6.78;;;;;;;25.75;54.42;101282.16;4990860;28;20061;-77
2021/09/07 08:36:49;;;;;;;8.43;6.50;;;;;;;26.25;52.45;101271.69;4973112;28;20080;-76
2021/09/07 08:39:15;;;;;;;11.73;7.25;;;;;;;26.71;49.90;101274.53;4991645;28;20142;-77
2021/09/07 08:41:42;;;;;;;7.47;6.00;;;;;;;26.80;50.86;101277.72;4991431;28;20031;-76
2021/09/07 08:44:08;;;;;;;8.93;6.15;;;;;;;27.24;48.10;101278.81;4990778;28;20034;-75
2021/09/07 08:46:33;;;;;;;7.72;6.43;;;;;;;27.72;45.67;101279.34;4973181;28;20073;-76
2021/09/07 08:48:59;;;;;;;7.70;6.25;;;;;;;27.80;46.74;101276.22;4990637;28;20034;-76
2021/09/07 08:51:24;;;;;;;7.65;6.18;;;;;;;28.29;45.47;101272.84;4973037;28;20117;-76
2021/09/07 08:53:52;;;;;;;9.73;7.30;;;;;;;28.71;43.31;101272.31;4990573;28;20601;-77
2021/09/07 08:56:18;;;;;;;10.55;8.13;;;;;;;28.49;43.03;101266.88;4990777;28;20034;-75
2021/09/07 08:58:43;;;;;;;10.98;6.93;;;;;;;28.41;44.01;101270.81;4973528;28;20118;-76
2021/09/07 09:01:18;;;;;;;8.85;6.57;;;;;;;28.70;42.14;101270.66;4991171;28;20034;-75
2021/09/07 09:03:48;;;;;;;11.52;7.38;;;;;;;28.86;41.34;101269.75;4990972;28;20110;-76
2021/09/07 09:06:24;;;;;;;8.38;5.60;;;;;;;28.85;43.41;101270.84;4991028;28;20125;-76
2021/09/07 09:09:01;;;;;;;7.70;6.28;;;;;;;28.98;40.38;101265.00;4991438;28;20110;-76
2021/09/07 09:11:26;;;;;;;9.80;6.95;;;;;;;29.31;41.12;101265.03;4973624;28;20050;-76
2021/09/07 09:13:51;;;;;;;7.88;6.10;;;;;;;29.60;40.74;101273.72;4973099;28;20565;-76
2021/09/07 09:16:17;;;;;;;5.87;4.83;;;;;;;29.11;40.36;101268.41;4972919;28;20034;-75
2021/09/07 09:18:48;;;;;;;6.90;5.30;;;;;;;28.90;40.96;101270.06;4973365;28;20653;-76
2021/09/07 09:21:31;;;;;;;7.53;5.13;;;;;;;29.38;39.78;101266.47;4990647;28;20150;-75
2021/09/07 09:24:18;;;;;;;8.80;6.05;;;;;;;29.59;39.53;101270.19;4990939;28;20357;-76
2021/09/07 09:26:59;;;;;;;8.00;5.50;;;;;;;28.85;42.00;101270.84;4985458;28;20041;-75
2021/09/07 09:29:27;;;;;;;8.05;6.03;;;;;;;28.67;41.86;101263.00;4990867;28;20035;-76
2021/09/07 09:31:57;;;;;;;8.45;5.97;;;;;;;28.59;42.08;101272.44;4990754;28;20146;-76
2021/09/07 09:34:23;;;;;;;9.90;6.07;;;;;;;28.56;42.68;101267.53;4972663;28;20030;-76
2021/09/07 09:37:00;;;;;;;8.50;6.20;;;;;;;28.32;43.01;101264.19;4990846;28;20114;-75
2021/09/07 09:39:37;;;;;;;8.73;6.97;;;;;;;28.54;43.12;101266.94;4990352;28;20442;-76
2021/09/07 09:42:02;;;;;;;9.82;6.85;;;;;;;28.37;42.59;101267.81;4990282;28;20031;-76
2021/09/07 09:44:28;;;;;;;8.38;6.53;;;;;;;28.14;43.29;101255.25;4989396;28;20039;-76
2021/09/07 09:46:53;;;;;;;9.77;7.45;;;;;;;28.37;43.15;101258.81;4990598;28;20390;-76
2021/09/07 09:49:20;;;;;;;9.13;7.05;;;;;;;28.02;44.78;101261.88;4990430;28;20034;-77
2021/09/07 09:51:47;;;;;;;8.60;7.30;;;;;;;28.07;44.27;101251.88;4990380;28;20053;-76
2021/09/07 09:54:14;;;;;;;10.40;6.38;;;;;;;27.91;44.18;101261.75;4972107;28;20097;-76
2021/09/07 09:56:39;;;;;;;8.63;6.75;;;;;;;28.07;43.78;101251.06;4990214;28;20026;-76
2021/09/07 09:59:06;;;;;;;8.50;6.35;;;;;;;26.98;46.84;101246.81;4990090;28;20035;-76
2021/09/07 10:01:32;;;;;;;7.65;6.00;;;;;;;27.03;46.23;101252.34;4990848;28;20038;-76
2021/09/07 10:04:00;;;;;;;5.88;5.05;;;;;;;27.22;46.61;101253.81;4973250;28;20076;-76
2021/09/07 10:06:26;;;;;;;8.30;6.55;;;;;;;27.43;45.45;101249.53;4990181;28;20547;-76
2021/09/07 10:08:52;;;;;;;8.48;6.90;;;;;;;27.90;42.55;101248.41;4972543;28;20113;-76
2021/09/07 10:11:22;;;;;;;12.02;7.38;;;;;;;27.78;43.70;101251.19;4972776;28;20045;-76
2021/09/07 10:13:53;;;;;;;10.00;6.05;;;;;;;27.58;44.48;101253.56;4989840;28;20022;-76
2021/09/07 10:16:41;;;;;;;5.88;5.25;;;;;;;27.27;45.35;101244.94;4989328;28;20502;-76
2021/09/07 10:26:39;;;;;;;8.57;7.15;;;;;;;27.51;43.61;101232.03;4990913;28;20050;-75
2021/09/07 10:29:06;;;;;;;9.45;7.32;;;;;;;27.38;44.13;101229.63;4973796;28;20113;-76
2021/09/07 10:31:40;;;;;;;8.65;6.80;;;;;;;27.19;44.31;101224.44;4990308;28;20112;-75
2021/09/07 10:34:06;;;;;;;9.70;6.80;;;;;;;27.03;44.68;101217.91;4993153;28;20034;-75
2021/09/07 10:36:36;;;;;;;8.98;6.20;;;;;;;27.16;44.24;101221.38;4990967;28;20387;-75
2021/09/07 10:39:04;;;;;;;8.88;7.32;;;;;;;27.12;43.19;101212.88;4990688;28;20031;-75
2021/09/07 10:41:32;;;;;;;9.48;7.13;;;;;;;26.62;45.53;101219.84;4989619;28;20410;-75
2021/09/07 10:44:25;;;;;;;8.52;6.70;;;;;;;26.83;45.04;101215.63;4989892;28;20129;-75
2021/09/07 10:46:58;;;;;;;10.20;6.90;;;;;;;26.92;45.09;101205.22;4971606;28;20507;-75
2021/09/07 10:49:36;;;;;;;7.97;6.20;;;;;;;26.78;45.39;101206.56;4991604;28;20061;-75
2021/09/07 10:52:12;;;;;;;9.18;6.65;;;;;;;26.88;45.74;101210.28;4989368;28;20027;-75
2021/09/07 10:54:53;;;;;;;10.68;7.07;;;;;;;27.06;44.67;101200.28;4990308;28;20035;-75
2021/09/07 10:57:46;;;;;;;9.57;6.95;;;;;;;27.07;45.26;101201.94;4986334;28;20745;-75
2021/09/07 11:00:14;;;;;;;9.85;7.55;;;;;;;27.15;45.76;101203.41;4986982;28;20053;-75
2021/09/07 11:02:41;;;;;;;10.55;7.53;;;;;;;27.33;44.70;101203.22;4990218;28;20109;-75
2021/09/07 11:05:25;;;;;;;10.35;7.68;;;;;;;27.49;44.04;101194.22;4990087;28;20035;-75
2021/09/07 11:08:02;;;;;;;9.75;7.55;;;;;;;27.41;44.33;101188.38;4989815;28;20032;-76
2021/09/07 11:10:37;;;;;;;9.32;7.20;;;;;;;27.35;45.21;101186.69;4990063;28;20040;-76
2021/09/07 11:13:08;;;;;;;8.10;6.45;;;;;;;27.06;46.38;101184.00;4986548;28;20039;-75
2021/09/07 11:15:40;;;;;;;8.80;6.68;;;;;;;27.24;45.43;101191.09;4989978;28;20033;-75
2021/09/07 11:18:13;;;;;;;9.20;7.32;;;;;;;27.43;44.23;101183.53;4988837;28;20030;-75
2021/09/07 11:20:42;;;;;;;9.57;6.20;;;;;;;27.36;45.33;101182.88;4972125;28;20117;-75
2021/09/07 11:23:24;;;;;;;7.85;6.43;;;;;;;27.22;46.19;101183.22;4988642;28;20403;-75
2021/09/07 11:25:59;;;;;;;8.90;6.70;;;;;;;27.25;46.66;101177.28;4971398;28;20034;-75
2021/09/07 11:28:24;;;;;;;9.32;7.40;;;;;;;27.07;46.30;101175.59;4989490;28;20161;-75
2021/09/07 11:30:51;;;;;;;8.95;6.70;;;;;;;27.00;46.47;101182.25;4987680;28;21125;-75